Portada
METAR-TAF:

METAR-TAF

Aeroports :

Poteau, Oklahoma, Estats Units d'Amèrica

latitud: 35-01-18N, longitud: 094-37-17W, altitud: 138 m

Observació

L'informe es va fer fa 26 minuts, a les 00:15 UTC
Vent 5 kt del Sud
Temperatura 28°C
Humitat 66%
Pressió 1017 hPa
Visibilitat: 16.1 km
Cel clar

METAR: KRKR 240015Z AUTO 18005KT 10SM CLR 28/21 A3003 RMK AO2

Hora: 19:41 (00:41 UTC)


TAF: manca

Observacions i pronòstics meteorològics de més de 4000 aeroports (METAR i TAF).

Les estacions disponibles són els punts grocs i vermells al mapa.

Posi el ratolí al punt desitjat per veure el nom de l'estació.

Feu clic per veure les observacions i els pronòstics meteorològics.

Per canviar el mapa: feu clic els botons verds amb una creu de color negre per apropar; al botó verd amb un guió per allunyar la imatge; o en les fletxes verdes per a mapes adjacents.


METAR-TAF: